Ana Sayfa
METAR-TAF:

METAR-TAF

Havaalanları :

Dakar, Senegal

Enlem: 14-44N, Boylam: 017-30W, yükseklik: 27 m

Güncel hava durumu gözlemi

Rapor saat 00:00 UTC de 4 saat ve 23 dakika önce yapıldı.
Rüzgar kuzeydan 10 kt
Sıcaklık 23°C
Nem 83%
Basınç 1014 hPa
Görüş mesafesi: 8000 m

METAR: GOOY 130000Z 36010KT 8000 NSC 23/20 Q1014

Saat: 04:23 (04:23 UTC)

Tahmin

Rapor saat 23:30 UTC de 4 saat ve 53 dakika önce yapıldı.
Ayın 13'si saat 00 UTC'den ayın 14'si saat 06 UTC'ye kadar geçerli Tahmin
Rüzgar kuzeydan 10 kt
Görüş mesafesi: 8000 m

TAF: GOOY 122330Z 1300/1406 36010KT 8000 NSC

4.000'den fazla havaalanı için hava durumu gözlemleri ve tahminleri (METAR ve TAF raporları).

Kullanılabilir istasyonlar harita üzerinde sarı ve kırmızı noktalarla gösterilir.

İstasyonun adını görmek için fareyi noktanın üzerinde gezdirin.

Sonrasında hava gözlem ve tahminlerini görmek için tıklayın.

Haritayı değiştirmek için: yaklaştırmak için siyah artı işaretli yeşil düğmeye ve uzaklaştırmak için de eksi işaretli düğmeye hızla tıklayın; bitişik haritalar için yeşil okları kullanın.


METAR-TAF: